createdAt,value
2018-07-20T00:00:00.759Z,1011.7
2018-07-20T00:00:41.325Z,1011.73
2018-07-20T00:01:21.897Z,1011.73
2018-07-20T00:02:02.468Z,1011.73
2018-07-20T00:02:43.031Z,1011.72
2018-07-20T00:03:23.599Z,1011.73
2018-07-20T00:04:04.150Z,1011.72
2018-07-20T00:04:44.720Z,1011.71
2018-07-20T00:05:25.288Z,1011.76
2018-07-20T00:06:05.843Z,1011.68
2018-07-20T00:06:46.414Z,1011.71
2018-07-20T00:07:26.979Z,1011.68
2018-07-20T00:08:07.593Z,1011.7
2018-07-20T00:08:48.123Z,1011.68
2018-07-20T00:09:28.694Z,1011.66
2018-07-20T00:10:09.266Z,1011.66
2018-07-20T00:10:49.837Z,1011.67
2018-07-20T00:11:30.398Z,1011.66
2018-07-20T00:12:10.968Z,1011.67
2018-07-20T00:12:51.527Z,1011.68
2018-07-20T00:13:32.097Z,1011.67
2018-07-20T00:14:12.656Z,1011.65
2018-07-20T00:14:53.240Z,1011.66
2018-07-20T00:15:33.794Z,1011.62
2018-07-20T00:16:14.358Z,1011.65
2018-07-20T00:16:54.944Z,1011.64
2018-07-20T00:17:35.504Z,1011.59
2018-07-20T00:18:16.079Z,1011.6
2018-07-20T00:18:56.654Z,1011.63
2018-07-20T00:19:37.227Z,1011.62
2018-07-20T00:20:17.786Z,1011.58
2018-07-20T00:20:58.334Z,1011.62
2018-07-20T00:21:38.906Z,1011.58
2018-07-20T00:22:19.469Z,1011.58
2018-07-20T00:23:00.036Z,1011.58
2018-07-20T00:23:40.608Z,1011.57
2018-07-20T00:24:21.168Z,1011.56
2018-07-20T00:25:01.747Z,1011.55
2018-07-20T00:25:42.313Z,1011.56
2018-07-20T00:26:22.887Z,1011.56
2018-07-20T00:27:03.451Z,1011.52
2018-07-20T00:27:44.019Z,1011.53
2018-07-20T00:28:24.589Z,1011.53
2018-07-20T00:29:05.157Z,1011.51
2018-07-20T00:29:45.720Z,1011.51
2018-07-20T00:30:26.308Z,1011.47
2018-07-20T00:31:06.867Z,1011.52
2018-07-20T00:31:47.420Z,1011.52
2018-07-20T00:32:27.986Z,1011.55
2018-07-20T00:33:08.552Z,1011.54
2018-07-20T00:33:49.122Z,1011.52
2018-07-20T00:34:29.688Z,1011.51
2018-07-20T00:35:10.247Z,1011.53
2018-07-20T00:35:50.825Z,1011.47
2018-07-20T00:36:31.384Z,1011.51
2018-07-20T00:37:11.949Z,1011.49
2018-07-20T00:37:52.524Z,1011.5
2018-07-20T00:38:33.085Z,1011.49
2018-07-20T00:39:13.664Z,1011.47
2018-07-20T00:39:54.238Z,1011.45
2018-07-20T00:40:34.803Z,1011.46
2018-07-20T00:41:15.409Z,1011.45
2018-07-20T00:41:55.941Z,1011.48
2018-07-20T00:42:36.541Z,1011.44
2018-07-20T00:43:17.114Z,1011.45
2018-07-20T00:43:57.678Z,1011.46
2018-07-20T00:44:38.270Z,1011.43
2018-07-20T00:45:18.828Z,1011.44
2018-07-20T00:45:59.399Z,1011.39
2018-07-20T00:46:39.971Z,1011.42
2018-07-20T00:47:20.542Z,1011.38
2018-07-20T00:48:01.122Z,1011.42
2018-07-20T00:48:41.681Z,1011.38
2018-07-20T00:49:22.249Z,1011.36
2018-07-20T00:50:02.825Z,1011.38
2018-07-20T00:50:43.395Z,1011.35
2018-07-20T00:51:23.962Z,1011.35
2018-07-20T00:52:04.526Z,1011.33
2018-07-20T00:52:45.099Z,1011.36
2018-07-20T00:53:25.665Z,1011.32
2018-07-20T00:54:06.240Z,1011.34
2018-07-20T00:54:46.811Z,1011.29
2018-07-20T00:55:27.379Z,1011.31
2018-07-20T00:56:07.945Z,1011.34
2018-07-20T00:56:48.507Z,1011.27
2018-07-20T00:57:29.066Z,1011.3
2018-07-20T00:58:09.661Z,1011.29
2018-07-20T00:58:50.245Z,1011.27
2018-07-20T00:59:30.797Z,1011.27
2018-07-20T01:00:11.364Z,1011.27
2018-07-20T01:00:51.938Z,1011.26
2018-07-20T01:01:32.510Z,1011.21
2018-07-20T01:02:13.068Z,1011.24
2018-07-20T01:02:53.642Z,1011.23
2018-07-20T01:03:34.210Z,1011.2
2018-07-20T01:04:14.781Z,1011.19
2018-07-20T01:04:55.354Z,1011.16
2018-07-20T01:05:35.926Z,1011.14
2018-07-20T01:06:16.495Z,1011.15
2018-07-20T01:06:57.058Z,1011.13
2018-07-20T01:07:37.620Z,1011.13
2018-07-20T01:08:18.203Z,1011.12
2018-07-20T01:08:58.784Z,1011.16
2018-07-20T01:09:39.368Z,1011.09
2018-07-20T01:10:19.939Z,1011.1
2018-07-20T01:11:00.511Z,1011.13
2018-07-20T01:11:41.070Z,1011.16
2018-07-20T01:12:21.641Z,1011.18
2018-07-20T01:13:02.225Z,1011.18
2018-07-20T01:13:42.796Z,1011.17
2018-07-20T01:14:23.361Z,1011.19
2018-07-20T01:15:03.936Z,1011.2
2018-07-20T01:15:44.508Z,1011.17
2018-07-20T01:16:25.077Z,1011.18
2018-07-20T01:17:05.643Z,1011.2
2018-07-20T01:17:46.202Z,1011.18
2018-07-20T01:18:26.780Z,1011.18
2018-07-20T01:19:07.357Z,1011.17
2018-07-20T01:19:47.926Z,1011.21
2018-07-20T01:20:28.497Z,1011.16
2018-07-20T01:21:09.067Z,1011.12
2018-07-20T01:21:49.633Z,1011.16
2018-07-20T01:22:30.202Z,1011.15
2018-07-20T01:23:10.796Z,1011.13
2018-07-20T01:23:51.374Z,1011.16
2018-07-20T01:24:31.941Z,1011.12
2018-07-20T01:25:12.518Z,1011.18
2018-07-20T01:25:53.093Z,1011.14
2018-07-20T01:26:33.656Z,1011.1
2018-07-20T01:27:14.215Z,1011.17
2018-07-20T01:27:54.780Z,1011.12
2018-07-20T01:28:35.355Z,1011.12
2018-07-20T01:29:15.894Z,1011.14
2018-07-20T01:29:56.472Z,1011.14
2018-07-20T01:30:37.037Z,1011.12
2018-07-20T01:31:17.614Z,1011.11
2018-07-20T01:31:58.181Z,1011.14
2018-07-20T01:32:38.749Z,1011.16
2018-07-20T01:33:19.311Z,1011.13
2018-07-20T01:33:59.867Z,1011.14
2018-07-20T01:34:40.448Z,1011.13
2018-07-20T01:35:21.018Z,1011.12
2018-07-20T01:36:01.584Z,1011.15
2018-07-20T01:36:42.153Z,1011.18
2018-07-20T01:37:22.727Z,1011.14
2018-07-20T01:38:03.285Z,1011.14
2018-07-20T01:38:43.857Z,1011.16
2018-07-20T01:39:24.402Z,1011.2
2018-07-20T01:40:04.978Z,1011.15
2018-07-20T01:40:45.556Z,1011.17
2018-07-20T01:41:26.117Z,1011.18
2018-07-20T01:42:06.683Z,1011.2
2018-07-20T01:42:47.253Z,1011.16
2018-07-20T01:43:27.823Z,1011.16
2018-07-20T01:44:08.386Z,1011.18
2018-07-20T01:44:48.950Z,1011.19
2018-07-20T01:45:29.519Z,1011.19
2018-07-20T01:46:10.096Z,1011.15
2018-07-20T01:46:50.667Z,1011.16
2018-07-20T01:47:31.267Z,1011.17
2018-07-20T01:48:11.839Z,1011.19
2018-07-20T01:48:52.430Z,1011.14
2018-07-20T01:49:32.988Z,1011.16
2018-07-20T01:50:13.572Z,1011.16
2018-07-20T01:50:54.144Z,1011.15
2018-07-20T01:51:34.715Z,1011.13
2018-07-20T01:52:15.284Z,1011.09
2018-07-20T01:52:55.850Z,1011.11
2018-07-20T01:53:36.446Z,1011.13
2018-07-20T01:54:17.050Z,1011.1
2018-07-20T01:54:57.615Z,1011.1
2018-07-20T01:55:38.184Z,1011.09
2018-07-20T01:56:18.753Z,1011.09
2018-07-20T01:56:59.328Z,1011.09
2018-07-20T01:57:39.902Z,1011.11
2018-07-20T01:58:20.469Z,1011.09
2018-07-20T01:59:01.038Z,1011.06
2018-07-20T01:59:41.607Z,1011.11
2018-07-20T02:00:22.170Z,1011.13
2018-07-20T02:01:02.740Z,1011.12
2018-07-20T02:01:43.311Z,1011.09
2018-07-20T02:02:23.881Z,1011.13
2018-07-20T02:03:04.445Z,1011.14
2018-07-20T02:03:45.011Z,1011.12
2018-07-20T02:04:25.579Z,1011.13
2018-07-20T02:05:06.147Z,1011.11
2018-07-20T02:05:46.719Z,1011.11
2018-07-20T02:06:27.273Z,1011.1
2018-07-20T02:07:07.845Z,1011.15
2018-07-20T02:07:48.406Z,1011.15
2018-07-20T02:08:28.981Z,1011.15
2018-07-20T02:09:09.547Z,1011.14
2018-07-20T02:09:50.120Z,1011.16
2018-07-20T02:10:30.678Z,1011.15
2018-07-20T02:11:11.239Z,1011.14
2018-07-20T02:11:51.810Z,1011.15
2018-07-20T02:12:32.374Z,1011.16
2018-07-20T02:13:12.944Z,1011.14
2018-07-20T02:13:53.504Z,1011.14
2018-07-20T02:14:34.075Z,1011.14
2018-07-20T02:15:14.643Z,1011.17
2018-07-20T02:15:55.253Z,1011.17
2018-07-20T02:16:35.804Z,1011.22
2018-07-20T02:17:16.381Z,1011.18
2018-07-20T02:17:56.946Z,1011.18
2018-07-20T02:18:37.512Z,1011.2
2018-07-20T02:19:18.075Z,1011.18
2018-07-20T02:19:58.647Z,1011.19
2018-07-20T02:20:39.237Z,1011.17
2018-07-20T02:21:19.814Z,1011.18
2018-07-20T02:22:00.382Z,1011.19
2018-07-20T02:22:40.935Z,1011.19
2018-07-20T02:23:21.493Z,1011.19
2018-07-20T02:24:02.096Z,1011.21
2018-07-20T02:24:42.631Z,1011.21
2018-07-20T02:25:23.201Z,1011.19
2018-07-20T02:26:03.768Z,1011.21
2018-07-20T02:26:44.330Z,1011.2
2018-07-20T02:27:24.885Z,1011.22
2018-07-20T02:28:05.459Z,1011.16
2018-07-20T02:28:46.025Z,1011.16
2018-07-20T02:29:26.643Z,1011.15
2018-07-20T02:30:07.154Z,1011.16
2018-07-20T02:30:47.717Z,1011.19
2018-07-20T02:31:28.286Z,1011.13
2018-07-20T02:32:08.839Z,1011.14
2018-07-20T02:32:49.420Z,1011.12
2018-07-20T02:33:29.977Z,1011.11
2018-07-20T02:34:10.546Z,1011.11
2018-07-20T02:34:51.126Z,1011.13
2018-07-20T02:35:31.693Z,1011.1
2018-07-20T02:36:12.266Z,1011.15
2018-07-20T02:36:52.834Z,1011.12
2018-07-20T02:37:33.410Z,1011.08
2018-07-20T02:38:13.974Z,1011.08
2018-07-20T02:38:54.546Z,1011.1
2018-07-20T02:39:35.116Z,1011.06
2018-07-20T02:40:15.688Z,1011.06
2018-07-20T02:40:56.250Z,1011.08
2018-07-20T02:41:36.821Z,1011.08
2018-07-20T02:42:17.400Z,1011.08
2018-07-20T02:42:57.972Z,1011.04
2018-07-20T02:43:38.546Z,1011.05
2018-07-20T02:44:19.112Z,1011.05
2018-07-20T02:44:59.678Z,1011.02
2018-07-20T02:45:40.244Z,1011.01
2018-07-20T02:46:20.822Z,1011.09
2018-07-20T02:47:01.385Z,1011.06
2018-07-20T02:47:41.963Z,1011.05
2018-07-20T02:48:22.522Z,1011.02
2018-07-20T02:49:03.090Z,1011.07
2018-07-20T02:49:43.653Z,1011.03
2018-07-20T02:50:24.221Z,1011.03
2018-07-20T02:51:04.804Z,1011.04
2018-07-20T02:51:45.360Z,1011.03
2018-07-20T02:52:25.922Z,1010.99
2018-07-20T02:53:06.487Z,1011.05
2018-07-20T02:53:47.058Z,1011.01
2018-07-20T02:54:27.633Z,1011.02
2018-07-20T02:55:08.195Z,1011.03
2018-07-20T02:55:48.788Z,1010.97
2018-07-20T02:56:29.344Z,1010.97
2018-07-20T02:57:09.909Z,1010.95
2018-07-20T02:57:50.486Z,1010.94
2018-07-20T02:58:31.052Z,1010.94
2018-07-20T02:59:11.619Z,1010.95
2018-07-20T02:59:52.185Z,1010.96
2018-07-20T03:00:32.757Z,1010.97
2018-07-20T03:01:13.327Z,1010.95
2018-07-20T03:01:53.899Z,1010.97
2018-07-20T03:02:34.461Z,1010.95
2018-07-20T03:03:15.021Z,1010.97
2018-07-20T03:03:55.585Z,1010.97
2018-07-20T03:04:36.142Z,1010.99
2018-07-20T03:05:16.722Z,1010.97
2018-07-20T03:05:57.276Z,1010.95
2018-07-20T03:06:37.840Z,1010.98
2018-07-20T03:07:18.407Z,1010.97
2018-07-20T03:07:58.977Z,1010.95
2018-07-20T03:08:39.549Z,1010.97
2018-07-20T03:09:20.106Z,1010.95
2018-07-20T03:10:00.679Z,1010.97
2018-07-20T03:10:41.239Z,1010.94
2018-07-20T03:11:21.811Z,1010.97
2018-07-20T03:12:02.378Z,1010.94
2018-07-20T03:12:42.950Z,1010.92
2018-07-20T03:13:23.520Z,1010.88
2018-07-20T03:14:04.082Z,1010.92
2018-07-20T03:14:44.645Z,1010.9
2018-07-20T03:15:25.199Z,1010.9
2018-07-20T03:16:05.767Z,1010.87
2018-07-20T03:16:46.341Z,1010.92
2018-07-20T03:17:26.912Z,1010.89
2018-07-20T03:18:07.488Z,1010.89
2018-07-20T03:18:48.037Z,1010.83
2018-07-20T03:19:28.603Z,1010.89
2018-07-20T03:20:09.168Z,1010.88
2018-07-20T03:20:49.749Z,1010.85
2018-07-20T03:21:30.325Z,1010.85
2018-07-20T03:22:10.893Z,1010.84
2018-07-20T03:22:51.461Z,1010.86
2018-07-20T03:23:32.034Z,1010.87
2018-07-20T03:24:12.603Z,1010.87
2018-07-20T03:24:53.180Z,1010.88
2018-07-20T03:25:33.742Z,1010.89
2018-07-20T03:26:14.314Z,1010.9
2018-07-20T03:26:54.890Z,1010.9
2018-07-20T03:27:35.470Z,1010.92
2018-07-20T03:28:16.043Z,1010.95
2018-07-20T03:28:56.608Z,1010.93
2018-07-20T03:29:37.178Z,1010.96
2018-07-20T03:30:17.747Z,1010.94
2018-07-20T03:30:58.329Z,1010.96
2018-07-20T03:31:38.897Z,1010.97
2018-07-20T03:32:19.462Z,1011.02
2018-07-20T03:33:00.083Z,1010.99
2018-07-20T03:33:40.604Z,1010.95
2018-07-20T03:34:21.182Z,1011.03
2018-07-20T03:35:01.753Z,1010.96
2018-07-20T03:35:42.326Z,1011
2018-07-20T03:36:22.886Z,1010.98
2018-07-20T03:37:03.460Z,1010.98
2018-07-20T03:37:44.017Z,1010.94
2018-07-20T03:38:24.591Z,1010.98
2018-07-20T03:39:05.152Z,1011.04
2018-07-20T03:39:45.715Z,1010.98
2018-07-20T03:40:26.290Z,1010.98
2018-07-20T03:41:06.872Z,1011.02
2018-07-20T03:41:47.470Z,1011.01
2018-07-20T03:42:28.037Z,1011.01
2018-07-20T03:43:08.601Z,1011.04
2018-07-20T03:43:49.173Z,1011
2018-07-20T03:44:29.761Z,1011.06
2018-07-20T03:45:10.329Z,1011.04
2018-07-20T03:45:50.901Z,1011.03
2018-07-20T03:46:31.449Z,1011.02
2018-07-20T03:47:12.027Z,1011.04
2018-07-20T03:47:52.597Z,1011
2018-07-20T03:48:33.161Z,1011
2018-07-20T03:49:13.730Z,1011.01
2018-07-20T03:49:54.300Z,1011.04
2018-07-20T03:50:34.856Z,1011
2018-07-20T03:51:15.418Z,1011.02
2018-07-20T03:51:55.981Z,1010.97
2018-07-20T03:52:36.545Z,1011.04
2018-07-20T03:53:17.137Z,1010.96
2018-07-20T03:53:57.713Z,1010.98
2018-07-20T03:54:38.274Z,1010.97
2018-07-20T03:55:18.840Z,1010.95
2018-07-20T03:55:59.430Z,1010.98
2018-07-20T03:56:39.992Z,1010.96
2018-07-20T03:57:20.559Z,1010.96
2018-07-20T03:58:01.164Z,1010.97
2018-07-20T03:58:41.740Z,1010.97
2018-07-20T03:59:22.298Z,1010.96
2018-07-20T04:00:02.864Z,1010.99
2018-07-20T04:00:43.436Z,1010.93
2018-07-20T04:01:23.980Z,1010.92
2018-07-20T04:02:04.558Z,1010.96
2018-07-20T04:02:45.121Z,1010.92
2018-07-20T04:03:25.694Z,1010.95
2018-07-20T04:04:06.250Z,1010.91
2018-07-20T04:04:46.832Z,1010.97
2018-07-20T04:05:27.394Z,1010.9
2018-07-20T04:06:07.955Z,1010.91
2018-07-20T04:06:48.528Z,1010.89
2018-07-20T04:07:29.099Z,1010.88
2018-07-20T04:08:09.668Z,1010.92
2018-07-20T04:08:50.229Z,1010.91
2018-07-20T04:09:30.800Z,1010.91
2018-07-20T04:10:11.369Z,1010.96
2018-07-20T04:10:51.935Z,1010.9
2018-07-20T04:11:32.503Z,1010.92
2018-07-20T04:12:13.073Z,1010.88
2018-07-20T04:12:53.639Z,1010.91
2018-07-20T04:13:34.209Z,1010.93
2018-07-20T04:14:14.763Z,1010.9
2018-07-20T04:14:55.337Z,1010.84
2018-07-20T04:15:35.898Z,1010.91
2018-07-20T04:16:16.482Z,1010.89
2018-07-20T04:16:57.055Z,1010.9
2018-07-20T04:17:37.614Z,1010.86
2018-07-20T04:18:18.188Z,1010.81
2018-07-20T04:18:58.759Z,1010.8
2018-07-20T04:19:39.320Z,1010.81
2018-07-20T04:20:19.939Z,1010.82
2018-07-20T04:21:00.505Z,1010.8
2018-07-20T04:21:41.068Z,1010.86
2018-07-20T04:22:21.623Z,1010.88
2018-07-20T04:23:02.193Z,1010.82
2018-07-20T04:23:42.764Z,1010.87
2018-07-20T04:24:23.333Z,1010.84
2018-07-20T04:25:03.896Z,1010.84
2018-07-20T04:25:44.467Z,1010.85
2018-07-20T04:26:25.036Z,1010.83
2018-07-20T04:27:05.596Z,1010.85
2018-07-20T04:27:46.163Z,1010.88
2018-07-20T04:28:26.825Z,1010.85
2018-07-20T04:29:07.390Z,1010.83
2018-07-20T04:29:47.956Z,1010.9
2018-07-20T04:30:28.522Z,1010.87
2018-07-20T04:31:09.082Z,1010.9
2018-07-20T04:31:49.658Z,1010.89
2018-07-20T04:32:30.232Z,1010.92
2018-07-20T04:33:10.801Z,1010.91
2018-07-20T04:33:51.366Z,1010.9
2018-07-20T04:34:31.947Z,1010.92
2018-07-20T04:35:12.518Z,1010.93
2018-07-20T04:35:53.081Z,1011.03
2018-07-20T04:36:33.652Z,1010.97
2018-07-20T04:37:14.217Z,1010.95
2018-07-20T04:37:54.786Z,1010.94
2018-07-20T04:38:35.362Z,1010.93
2018-07-20T04:39:15.937Z,1010.92
2018-07-20T04:39:56.508Z,1010.91
2018-07-20T04:40:37.081Z,1010.92
2018-07-20T04:41:17.639Z,1010.92
2018-07-20T04:41:58.207Z,1010.89
2018-07-20T04:42:38.777Z,1010.87
2018-07-20T04:43:19.349Z,1010.82
2018-07-20T04:43:59.972Z,1010.83
2018-07-20T04:44:40.491Z,1010.84
2018-07-20T04:45:21.051Z,1010.82
2018-07-20T04:46:01.626Z,1010.84
2018-07-20T04:46:42.191Z,1010.8
2018-07-20T04:47:22.757Z,1010.86
2018-07-20T04:48:03.335Z,1010.83
2018-07-20T04:48:43.902Z,1010.86
2018-07-20T04:49:24.526Z,1010.9
2018-07-20T04:50:05.031Z,1010.89
2018-07-20T04:50:45.603Z,1010.9
2018-07-20T04:51:26.172Z,1010.95
2018-07-20T04:52:06.747Z,1010.94
2018-07-20T04:52:47.307Z,1010.95
2018-07-20T04:53:27.870Z,1010.93
2018-07-20T04:54:08.437Z,1010.97
2018-07-20T04:54:49.016Z,1010.93
2018-07-20T04:55:29.578Z,1010.94
2018-07-20T04:56:10.144Z,1010.97
2018-07-20T04:56:50.719Z,1010.92
2018-07-20T04:57:31.286Z,1010.97
2018-07-20T04:58:11.867Z,1010.97
2018-07-20T04:58:52.578Z,1011.01
2018-07-20T04:59:33.012Z,1011.03
2018-07-20T05:00:13.582Z,1011.03
2018-07-20T05:00:54.154Z,1011.04
2018-07-20T05:01:34.712Z,1011.02
2018-07-20T05:02:15.285Z,1011.06
2018-07-20T05:02:55.848Z,1011.04
2018-07-20T05:03:36.452Z,1011.09
2018-07-20T05:04:16.996Z,1011.02
2018-07-20T05:04:57.559Z,1011.01
2018-07-20T05:05:38.134Z,1010.99
2018-07-20T05:06:18.700Z,1010.99
2018-07-20T05:06:59.274Z,1010.99
2018-07-20T05:07:39.844Z,1010.97
2018-07-20T05:08:20.410Z,1010.99
2018-07-20T05:09:00.971Z,1010.97
2018-07-20T05:09:41.533Z,1010.96
2018-07-20T05:10:22.105Z,1010.94
2018-07-20T05:11:02.706Z,1010.94
2018-07-20T05:11:43.267Z,1010.97
2018-07-20T05:12:23.832Z,1010.95
2018-07-20T05:13:04.438Z,1010.99
2018-07-20T05:13:45.006Z,1011
2018-07-20T05:14:25.570Z,1010.99
2018-07-20T05:15:06.141Z,1010.94
2018-07-20T05:15:46.705Z,1010.96
2018-07-20T05:16:27.276Z,1010.92
2018-07-20T05:17:07.846Z,1010.9
2018-07-20T05:17:48.414Z,1010.92
2018-07-20T05:18:28.979Z,1010.91
2018-07-20T05:19:09.539Z,1010.88
2018-07-20T05:19:50.289Z,1010.9
2018-07-20T05:20:30.869Z,1010.92
2018-07-20T05:21:11.440Z,1010.9
2018-07-20T05:21:52.114Z,1010.93
2018-07-20T05:22:32.686Z,1010.92
2018-07-20T05:23:13.310Z,1010.92
2018-07-20T05:23:53.969Z,1010.91
2018-07-20T05:24:34.681Z,1010.9
2018-07-20T05:25:15.255Z,1010.91
2018-07-20T05:25:55.843Z,1010.92
2018-07-20T05:26:36.452Z,1010.88
2018-07-20T05:27:17.066Z,1010.94
2018-07-20T05:27:57.670Z,1010.94
2018-07-20T05:28:38.233Z,1010.93
2018-07-20T05:29:18.887Z,1010.92
2018-07-20T05:29:59.458Z,1010.9
2018-07-20T05:30:40.060Z,1010.94
2018-07-20T05:31:20.639Z,1010.96
2018-07-20T05:32:01.195Z,1010.95
2018-07-20T05:32:41.834Z,1010.97
2018-07-20T05:33:22.387Z,1010.99
2018-07-20T05:34:02.956Z,1010.96
2018-07-20T05:34:43.556Z,1011.01
2018-07-20T05:35:24.128Z,1010.99
2018-07-20T05:36:04.699Z,1010.97
2018-07-20T05:36:45.321Z,1010.96
2018-07-20T05:37:25.886Z,1010.89
2018-07-20T05:38:06.627Z,1010.89
2018-07-20T05:38:47.155Z,1010.89
2018-07-20T05:39:27.720Z,1010.92
2018-07-20T05:40:08.299Z,1010.92
2018-07-20T05:40:48.873Z,1010.93
2018-07-20T05:41:29.624Z,1010.96
2018-07-20T05:42:10.373Z,1011.04
2018-07-20T05:42:51.020Z,1011.04
2018-07-20T05:43:31.701Z,1010.99
2018-07-20T05:44:12.487Z,1011.02
2018-07-20T05:44:53.101Z,1011.02
2018-07-20T05:45:33.677Z,1011.05
2018-07-20T05:46:14.265Z,1011.04
2018-07-20T05:46:54.812Z,1011.07
2018-07-20T05:47:35.412Z,1011.1
2018-07-20T05:48:15.980Z,1011.09
2018-07-20T05:48:56.548Z,1011.08
2018-07-20T05:49:37.161Z,1011.13
2018-07-20T05:50:17.741Z,1011.21
2018-07-20T05:50:58.319Z,1011.13
2018-07-20T05:51:38.894Z,1011.2
2018-07-20T05:52:19.460Z,1011.19
2018-07-20T05:53:00.029Z,1011.2
2018-07-20T05:53:40.610Z,1011.24
2018-07-20T05:54:21.173Z,1011.22
2018-07-20T05:55:01.751Z,1011.26
2018-07-20T05:55:42.326Z,1011.25
2018-07-20T05:56:22.886Z,1011.31
2018-07-20T05:57:03.498Z,1011.31
2018-07-20T05:57:44.073Z,1011.34
2018-07-20T05:58:24.660Z,1011.35
2018-07-20T05:59:05.260Z,1011.47
2018-07-20T05:59:45.802Z,1011.47
2018-07-20T06:00:26.425Z,1011.52
2018-07-20T06:01:06.997Z,1011.61
2018-07-20T06:01:47.583Z,1011.68
2018-07-20T06:02:28.143Z,1011.69
2018-07-20T06:03:08.731Z,1011.73
2018-07-20T06:03:49.299Z,1011.66
2018-07-20T06:04:30.026Z,1011.34
2018-07-20T06:05:10.652Z,1011.51
2018-07-20T06:05:51.168Z,1011.19
2018-07-20T06:06:31.732Z,1011.25
2018-07-20T06:07:12.315Z,1011.42
2018-07-20T06:07:52.872Z,1011.78
2018-07-20T06:08:33.465Z,1011.81
2018-07-20T06:09:14.008Z,1011.55
2018-07-20T06:09:54.596Z,1011.85
2018-07-20T06:10:35.210Z,1011.9
2018-07-20T06:11:15.787Z,1011.96
2018-07-20T06:11:56.551Z,1011.86
2018-07-20T06:12:37.116Z,1011.3
2018-07-20T06:13:17.716Z,1011.89
2018-07-20T06:13:58.276Z,1011.2
2018-07-20T06:14:38.849Z,1011.11
2018-07-20T06:15:19.407Z,1011.88
2018-07-20T06:15:59.979Z,1011.65
2018-07-20T06:16:40.547Z,1011.07
2018-07-20T06:17:21.114Z,1011.05
2018-07-20T06:18:01.763Z,1011.09
2018-07-20T06:18:42.396Z,1011.36
2018-07-20T06:19:22.959Z,1011.76
2018-07-20T06:20:03.538Z,1011.77
2018-07-20T06:20:44.112Z,1011.72
2018-07-20T06:21:24.702Z,1011.61
2018-07-20T06:22:05.292Z,1011.55
2018-07-20T06:22:45.837Z,1011.21
2018-07-20T06:23:26.497Z,1011.12
2018-07-20T06:24:07.056Z,1011.53
2018-07-20T06:24:47.637Z,1011.49
2018-07-20T06:25:28.193Z,1011.32
2018-07-20T06:26:08.761Z,1011.11
2018-07-20T06:26:49.328Z,1011.71
2018-07-20T06:27:29.893Z,1011.71
2018-07-20T06:28:10.464Z,1011.69
2018-07-20T06:28:51.027Z,1011.7
2018-07-20T06:29:31.665Z,1011.34
2018-07-20T06:30:12.205Z,1011.34
2018-07-20T06:30:52.811Z,1011.41
2018-07-20T06:31:33.329Z,1011.3
2018-07-20T06:32:13.992Z,1011.7
2018-07-20T06:32:54.478Z,1011.09
2018-07-20T06:33:35.061Z,1011.08
2018-07-20T06:34:15.600Z,1011.55
2018-07-20T06:34:56.175Z,1011.45
2018-07-20T06:35:36.743Z,1011.49
2018-07-20T06:36:17.317Z,1011.15
2018-07-20T06:36:57.905Z,1011.58
2018-07-20T06:37:38.475Z,1011.65
2018-07-20T06:38:19.071Z,1011.68
2018-07-20T06:38:59.640Z,1011.65
2018-07-20T06:39:40.222Z,1011.59
2018-07-20T06:40:20.812Z,1011.57
2018-07-20T06:41:01.391Z,1011.59
2018-07-20T06:41:41.959Z,1011.21
2018-07-20T06:42:22.556Z,1011.6
2018-07-20T06:43:03.119Z,1011.5
2018-07-20T06:43:43.931Z,1011.38
2018-07-20T06:44:24.505Z,1011.23
2018-07-20T06:45:05.193Z,1011.52
2018-07-20T06:45:45.882Z,1011.56
2018-07-20T06:46:26.460Z,1011.51
2018-07-20T06:47:07.020Z,1011.34
2018-07-20T06:47:47.665Z,1011.11
2018-07-20T06:48:28.313Z,1011.14
2018-07-20T06:49:09.111Z,1011.19
2018-07-20T06:49:49.702Z,1011.17
2018-07-20T06:50:30.467Z,1011.22
2018-07-20T06:51:11.105Z,1011.19
2018-07-20T06:51:51.764Z,1011.17
2018-07-20T06:52:32.341Z,1011.19
2018-07-20T06:53:13.007Z,1011.16
2018-07-20T06:53:53.479Z,1011.19
2018-07-20T06:54:34.043Z,1011.2
2018-07-20T06:55:14.710Z,1011.17
2018-07-20T06:55:55.328Z,1011.2
2018-07-20T06:56:35.862Z,1011.2
2018-07-20T06:57:16.416Z,1011.2
2018-07-20T06:57:56.996Z,1011.18
2018-07-20T06:58:37.805Z,1011.2
2018-07-20T06:59:18.376Z,1011.2
2018-07-20T06:59:59.096Z,1011.26
2018-07-20T07:00:39.683Z,1011.22
2018-07-20T07:01:20.264Z,1011.25
2018-07-20T07:02:00.842Z,1011.22
2018-07-20T07:02:41.420Z,1011.23
2018-07-20T07:03:21.987Z,1011.25
2018-07-20T07:04:02.565Z,1011.23
2018-07-20T07:04:43.329Z,1011.25
2018-07-20T07:05:23.933Z,1011.23
2018-07-20T07:06:04.521Z,1011.24
2018-07-20T07:06:45.080Z,1011.24
2018-07-20T07:07:25.657Z,1011.23
2018-07-20T07:08:06.237Z,1011.25
2018-07-20T07:08:46.805Z,1011.23
2018-07-20T07:09:27.418Z,1011.22
2018-07-20T07:10:07.961Z,1011.22
2018-07-20T07:10:48.568Z,1011.27
2018-07-20T07:11:29.133Z,1011.27
2018-07-20T07:12:09.711Z,1011.25
2018-07-20T07:12:50.294Z,1011.28
2018-07-20T07:13:30.854Z,1011.29
2018-07-20T07:14:11.430Z,1011.28
2018-07-20T07:14:52.090Z,1011.32
2018-07-20T07:15:32.691Z,1011.34
2018-07-20T07:16:13.267Z,1011.37
2018-07-20T07:16:53.833Z,1011.34
2018-07-20T07:17:34.410Z,1011.32
2018-07-20T07:18:14.991Z,1011.33
2018-07-20T07:18:55.561Z,1011.3
2018-07-20T07:19:36.137Z,1011.31
2018-07-20T07:20:16.709Z,1011.24
2018-07-20T07:20:57.289Z,1011.33
2018-07-20T07:21:37.871Z,1011.37
2018-07-20T07:22:18.545Z,1011.35
2018-07-20T07:22:59.022Z,1011.34
2018-07-20T07:23:39.708Z,1011.38
2018-07-20T07:24:20.220Z,1011.36
2018-07-20T07:25:00.796Z,1011.38
2018-07-20T07:25:41.414Z,1011.38
2018-07-20T07:26:22.003Z,1011.37
2018-07-20T07:27:02.583Z,1011.41
2018-07-20T07:27:43.153Z,1011.4
2018-07-20T07:28:23.727Z,1011.41
2018-07-20T07:29:04.379Z,1011.45
2018-07-20T07:29:44.957Z,1011.45
2018-07-20T07:30:25.522Z,1011.41
2018-07-20T07:31:06.101Z,1011.44
2018-07-20T07:31:46.687Z,1011.36
2018-07-20T07:32:27.264Z,1011.53
2018-07-20T07:33:07.839Z,1011.47
2018-07-20T07:33:48.408Z,1011.38
2018-07-20T07:34:28.985Z,1011.32
2018-07-20T07:35:09.585Z,1011.43
2018-07-20T07:35:50.227Z,1011.47
2018-07-20T07:36:30.790Z,1011.46
2018-07-20T07:37:11.466Z,1011.46
2018-07-20T07:37:52.086Z,1011.42
2018-07-20T07:38:32.663Z,1011.42
2018-07-20T07:39:13.249Z,1011.4
2018-07-20T07:39:53.819Z,1011.39
2018-07-20T07:40:34.403Z,1011.35
2018-07-20T07:41:15.002Z,1011.35
2018-07-20T07:41:55.570Z,1011.37
2018-07-20T07:42:36.158Z,1011.4
2018-07-20T07:43:16.733Z,1011.38
2018-07-20T07:43:57.314Z,1011.36
2018-07-20T07:44:37.904Z,1011.41
2018-07-20T07:45:18.486Z,1011.39
2018-07-20T07:45:59.060Z,1011.31
2018-07-20T07:46:39.631Z,1011.36
2018-07-20T07:47:20.218Z,1011.37
2018-07-20T07:48:00.820Z,1011.35
2018-07-20T07:48:41.377Z,1011.37
2018-07-20T07:49:21.997Z,1011.35
2018-07-20T07:50:02.537Z,1011.33
2018-07-20T07:50:43.116Z,1011.34
2018-07-20T07:51:23.723Z,1011.36
2018-07-20T07:52:04.294Z,1011.34
2018-07-20T07:52:44.876Z,1011.24
2018-07-20T07:53:25.453Z,1011.24
2018-07-20T07:54:06.037Z,1011.22
2018-07-20T07:54:46.667Z,1011.24
2018-07-20T07:55:27.189Z,1011.32
2018-07-20T07:56:07.774Z,1011.2
2018-07-20T07:56:48.354Z,1011.31
2018-07-20T07:57:28.942Z,1011.25
2018-07-20T07:58:09.520Z,1011.26
2018-07-20T07:58:50.099Z,1011.31
2018-07-20T07:59:30.683Z,1011.35
2018-07-20T08:00:11.266Z,1011.29
2018-07-20T08:00:51.844Z,1011.29
2018-07-20T08:01:32.433Z,1011.31
2018-07-20T08:02:13.010Z,1011.3
2018-07-20T08:02:53.582Z,1011.31
2018-07-20T08:03:34.241Z,1011.31
2018-07-20T08:04:14.743Z,1011.29
2018-07-20T08:04:55.326Z,1011.3
2018-07-20T08:05:35.906Z,1011.26
2018-07-20T08:06:16.498Z,1011.3
2018-07-20T08:06:57.062Z,1011.3
2018-07-20T08:07:37.640Z,1011.26
2018-07-20T08:08:18.213Z,1011.27
2018-07-20T08:08:58.780Z,1011.27
2018-07-20T08:09:39.439Z,1011.29
2018-07-20T08:10:20.004Z,1011.25
2018-07-20T08:11:00.527Z,1011.27
2018-07-20T08:11:41.167Z,1011.27
2018-07-20T08:12:21.749Z,1011.29